メインページ
METAR-TAF:

METAR-TAF

空港 :

マル・デル・プラタ, アルゼンチン

緯度: 37-56S, 経度: 057-35W, 海抜: 18m

現時点の気象観測

当レポートは18分前の14:00(UTC)に作成
の風 13kt
気温 24°C
湿度 54%
気圧 1019 hPa
視程10km以上
高度3800ftの雲はほとんどない
高度4500ftの雲は散在している

METAR: SAZM 201400Z 35013KT 9999 FEW038 SCT045 24/14 Q1019

時間: 11:18 (14:18 UTC)

予報

当レポートは3時間18分前の11:00(UTC)に作成
予報は20日の 12時(UTC)から 21日の 12時(UTC)まで有効
の風 10kt
視程10km以上
1,500メートル以下は雲なし、積乱雲なし
20日の 16時(UTC)から 20日の 18時(UTC)まで徐々に
北東の風 15kt、最大25ktの突風を伴う

TAF: SAZM 201100Z 2012/2112 36010KT CAVOK TX27/2018Z TN15/2110Z BECMG 2016/2018 05015G25KT

4,000以上の空港の気象観測と天気予報(METAR報とTAF報)

利用可能な観測所は地図上に黄色い丸と赤い丸で示す。

丸の上にカーソルを重ねると観測所名を参照できる。

次にクリックすると気象観測と天気予報を参照できる。

マップの切り替え:黒色「×」印の緑ボタンをクリックして拡大、「-」印の緑ボタンをクリックして縮小、緑色の三角印をクリックして隣りの地図に切り替え


METAR-TAF: